sensor_id;sensor_type;location;lat;lon;timestamp;P1;durP1;ratioP1;P2;durP2;ratioP2
2201;SDS011;1107;48.654;9.250;2024-02-15T00:00:37;2.07;;;1.77;;
2201;SDS011;1107;48.654;9.250;2024-02-15T00:03:05;2.13;;;1.63;;
2201;SDS011;1107;48.654;9.250;2024-02-15T00:05:32;4.07;;;1.80;;
2201;SDS011;1107;48.654;9.250;2024-02-15T00:08:00;2.00;;;1.70;;
2201;SDS011;1107;48.654;9.250;2024-02-15T00:10:26;1.87;;;1.70;;
2201;SDS011;1107;48.654;9.250;2024-02-15T00:12:53;6.03;;;2.57;;
2201;SDS011;1107;48.654;9.250;2024-02-15T00:15:20;3.30;;;1.27;;
2201;SDS011;1107;48.654;9.250;2024-02-15T00:17:47;1.60;;;1.37;;
2201;SDS011;1107;48.654;9.250;2024-02-15T00:20:16;2.47;;;1.60;;
2201;SDS011;1107;48.654;9.250;2024-02-15T00:22:43;3.77;;;1.67;;
2201;SDS011;1107;48.654;9.250;2024-02-15T00:25:10;1.40;;;1.23;;
2201;SDS011;1107;48.654;9.250;2024-02-15T00:27:39;2.10;;;1.73;;
2201;SDS011;1107;48.654;9.250;2024-02-15T00:30:06;2.77;;;1.43;;
2201;SDS011;1107;48.654;9.250;2024-02-15T00:32:34;1.60;;;1.50;;
2201;SDS011;1107;48.654;9.250;2024-02-15T00:35:03;1.40;;;1.30;;
2201;SDS011;1107;48.654;9.250;2024-02-15T00:37:34;5.80;;;1.80;;
2201;SDS011;1107;48.654;9.250;2024-02-15T00:40:01;1.93;;;1.70;;
2201;SDS011;1107;48.654;9.250;2024-02-15T00:42:28;4.03;;;1.60;;
2201;SDS011;1107;48.654;9.250;2024-02-15T00:44:56;1.60;;;1.50;;
2201;SDS011;1107;48.654;9.250;2024-02-15T00:47:23;3.03;;;1.53;;
2201;SDS011;1107;48.654;9.250;2024-02-15T00:49:50;1.60;;;1.40;;
2201;SDS011;1107;48.654;9.250;2024-02-15T00:52:17;1.63;;;1.40;;
2201;SDS011;1107;48.654;9.250;2024-02-15T00:54:46;2.03;;;1.50;;
2201;SDS011;1107;48.654;9.250;2024-02-15T00:57:13;1.90;;;1.80;;
2201;SDS011;1107;48.654;9.250;2024-02-15T00:59:40;2.30;;;2.10;;
2201;SDS011;1107;48.654;9.250;2024-02-15T01:02:07;3.20;;;3.00;;
2201;SDS011;1107;48.654;9.250;2024-02-15T01:04:34;2.77;;;2.57;;
2201;SDS011;1107;48.654;9.250;2024-02-15T01:07:00;3.40;;;3.20;;
2201;SDS011;1107;48.654;9.250;2024-02-15T01:09:27;2.53;;;2.33;;
2201;SDS011;1107;48.654;9.250;2024-02-15T01:11:57;3.53;;;2.90;;
2201;SDS011;1107;48.654;9.250;2024-02-15T01:14:24;2.50;;;2.20;;
2201;SDS011;1107;48.654;9.250;2024-02-15T01:16:55;2.53;;;2.33;;
2201;SDS011;1107;48.654;9.250;2024-02-15T01:19:22;2.90;;;2.53;;
2201;SDS011;1107;48.654;9.250;2024-02-15T01:21:49;3.10;;;2.80;;
2201;SDS011;1107;48.654;9.250;2024-02-15T01:24:15;3.10;;;2.90;;
2201;SDS011;1107;48.654;9.250;2024-02-15T01:26:42;3.50;;;3.20;;
2201;SDS011;1107;48.654;9.250;2024-02-15T01:29:11;3.40;;;3.10;;
2201;SDS011;1107;48.654;9.250;2024-02-15T01:31:38;2.50;;;2.30;;
2201;SDS011;1107;48.654;9.250;2024-02-15T01:34:05;2.60;;;2.40;;
2201;SDS011;1107;48.654;9.250;2024-02-15T01:36:32;2.80;;;2.60;;
2201;SDS011;1107;48.654;9.250;2024-02-15T01:38:59;2.70;;;2.50;;
2201;SDS011;1107;48.654;9.250;2024-02-15T01:41:26;2.67;;;2.47;;
2201;SDS011;1107;48.654;9.250;2024-02-15T01:43:53;2.47;;;2.20;;
2201;SDS011;1107;48.654;9.250;2024-02-15T01:46:21;2.57;;;2.10;;
2201;SDS011;1107;48.654;9.250;2024-02-15T01:48:48;2.87;;;2.10;;
2201;SDS011;1107;48.654;9.250;2024-02-15T01:51:16;3.77;;;2.43;;
2201;SDS011;1107;48.654;9.250;2024-02-15T01:53:44;2.40;;;2.20;;
2201;SDS011;1107;48.654;9.250;2024-02-15T01:56:12;3.03;;;1.80;;
2201;SDS011;1107;48.654;9.250;2024-02-15T01:58:40;1.77;;;1.67;;
2201;SDS011;1107;48.654;9.250;2024-02-15T02:01:11;1.80;;;1.70;;
2201;SDS011;1107;48.654;9.250;2024-02-15T02:03:40;3.60;;;2.00;;
2201;SDS011;1107;48.654;9.250;2024-02-15T02:06:07;2.13;;;2.00;;
2201;SDS011;1107;48.654;9.250;2024-02-15T02:08:34;2.13;;;1.93;;
2201;SDS011;1107;48.654;9.250;2024-02-15T02:11:01;2.97;;;1.57;;
2201;SDS011;1107;48.654;9.250;2024-02-15T02:13:29;2.33;;;1.43;;
2201;SDS011;1107;48.654;9.250;2024-02-15T02:15:56;2.13;;;1.93;;
2201;SDS011;1107;48.654;9.250;2024-02-15T02:18:25;1.90;;;1.80;;
2201;SDS011;1107;48.654;9.250;2024-02-15T02:20:53;1.60;;;1.30;;
2201;SDS011;1107;48.654;9.250;2024-02-15T02:23:20;1.83;;;1.60;;
2201;SDS011;1107;48.654;9.250;2024-02-15T02:25:53;1.97;;;1.53;;
2201;SDS011;1107;48.654;9.250;2024-02-15T02:28:21;1.77;;;1.67;;
2201;SDS011;1107;48.654;9.250;2024-02-15T02:30:48;8.00;;;7.40;;
2201;SDS011;1107;48.654;9.250;2024-02-15T02:33:15;9.83;;;8.83;;
2201;SDS011;1107;48.654;9.250;2024-02-15T02:35:44;3.93;;;3.60;;
2201;SDS011;1107;48.654;9.250;2024-02-15T02:38:11;2.67;;;2.47;;
2201;SDS011;1107;48.654;9.250;2024-02-15T02:40:39;2.10;;;1.90;;
2201;SDS011;1107;48.654;9.250;2024-02-15T02:43:08;2.63;;;1.70;;
2201;SDS011;1107;48.654;9.250;2024-02-15T02:45:35;2.10;;;1.90;;
2201;SDS011;1107;48.654;9.250;2024-02-15T02:48:03;1.90;;;1.80;;
2201;SDS011;1107;48.654;9.250;2024-02-15T02:50:30;2.40;;;2.20;;
2201;SDS011;1107;48.654;9.250;2024-02-15T02:52:57;2.00;;;1.80;;
2201;SDS011;1107;48.654;9.250;2024-02-15T02:55:24;3.20;;;3.00;;
2201;SDS011;1107;48.654;9.250;2024-02-15T02:57:52;3.07;;;2.80;;
2201;SDS011;1107;48.654;9.250;2024-02-15T03:00:21;3.50;;;3.30;;
2201;SDS011;1107;48.654;9.250;2024-02-15T03:02:48;4.53;;;4.20;;
2201;SDS011;1107;48.654;9.250;2024-02-15T03:05:15;4.00;;;3.80;;
2201;SDS011;1107;48.654;9.250;2024-02-15T03:07:45;3.97;;;3.70;;
2201;SDS011;1107;48.654;9.250;2024-02-15T03:10:12;3.53;;;3.27;;
2201;SDS011;1107;48.654;9.250;2024-02-15T03:12:40;3.27;;;3.07;;
2201;SDS011;1107;48.654;9.250;2024-02-15T03:15:12;3.70;;;3.50;;
2201;SDS011;1107;48.654;9.250;2024-02-15T03:17:41;3.00;;;2.80;;
2201;SDS011;1107;48.654;9.250;2024-02-15T03:20:09;6.73;;;3.00;;
2201;SDS011;1107;48.654;9.250;2024-02-15T03:22:45;3.57;;;3.37;;
2201;SDS011;1107;48.654;9.250;2024-02-15T03:25:16;3.47;;;3.27;;
2201;SDS011;1107;48.654;9.250;2024-02-15T03:27:43;2.90;;;2.70;;
2201;SDS011;1107;48.654;9.250;2024-02-15T03:30:10;3.73;;;3.43;;
2201;SDS011;1107;48.654;9.250;2024-02-15T03:32:40;2.60;;;2.40;;
2201;SDS011;1107;48.654;9.250;2024-02-15T03:35:07;2.83;;;2.53;;
2201;SDS011;1107;48.654;9.250;2024-02-15T03:37:34;4.43;;;2.53;;
2201;SDS011;1107;48.654;9.250;2024-02-15T03:40:03;3.37;;;2.87;;
2201;SDS011;1107;48.654;9.250;2024-02-15T03:42:31;4.80;;;2.20;;
2201;SDS011;1107;48.654;9.250;2024-02-15T03:44:58;2.93;;;2.10;;
2201;SDS011;1107;48.654;9.250;2024-02-15T03:47:25;2.23;;;2.03;;
2201;SDS011;1107;48.654;9.250;2024-02-15T03:49:55;3.00;;;2.80;;
2201;SDS011;1107;48.654;9.250;2024-02-15T03:52:23;3.13;;;2.80;;
2201;SDS011;1107;48.654;9.250;2024-02-15T03:54:50;2.53;;;2.33;;
2201;SDS011;1107;48.654;9.250;2024-02-15T03:57:17;2.50;;;2.30;;
2201;SDS011;1107;48.654;9.250;2024-02-15T03:59:46;2.80;;;2.60;;
2201;SDS011;1107;48.654;9.250;2024-02-15T04:02:15;2.33;;;2.00;;
2201;SDS011;1107;48.654;9.250;2024-02-15T04:04:43;2.37;;;2.17;;
2201;SDS011;1107;48.654;9.250;2024-02-15T04:07:13;2.67;;;2.43;;
2201;SDS011;1107;48.654;9.250;2024-02-15T04:09:41;2.10;;;1.80;;
2201;SDS011;1107;48.654;9.250;2024-02-15T04:12:08;2.60;;;2.17;;
2201;SDS011;1107;48.654;9.250;2024-02-15T04:14:35;2.97;;;2.77;;
2201;SDS011;1107;48.654;9.250;2024-02-15T04:17:03;2.10;;;1.90;;
2201;SDS011;1107;48.654;9.250;2024-02-15T04:19:30;1.93;;;1.80;;
2201;SDS011;1107;48.654;9.250;2024-02-15T04:21:57;2.57;;;2.37;;
2201;SDS011;1107;48.654;9.250;2024-02-15T04:24:26;2.30;;;2.10;;
2201;SDS011;1107;48.654;9.250;2024-02-15T04:26:54;4.90;;;2.27;;
2201;SDS011;1107;48.654;9.250;2024-02-15T04:29:21;2.47;;;2.20;;
2201;SDS011;1107;48.654;9.250;2024-02-15T04:31:48;3.07;;;2.13;;
2201;SDS011;1107;48.654;9.250;2024-02-15T04:34:15;2.57;;;2.37;;
2201;SDS011;1107;48.654;9.250;2024-02-15T04:36:43;2.80;;;1.97;;
2201;SDS011;1107;48.654;9.250;2024-02-15T04:39:15;3.83;;;2.30;;
2201;SDS011;1107;48.654;9.250;2024-02-15T04:41:50;2.30;;;2.20;;
2201;SDS011;1107;48.654;9.250;2024-02-15T04:44:17;3.40;;;2.10;;
2201;SDS011;1107;48.654;9.250;2024-02-15T04:46:45;3.77;;;2.87;;
2201;SDS011;1107;48.654;9.250;2024-02-15T04:49:12;2.93;;;2.70;;
2201;SDS011;1107;48.654;9.250;2024-02-15T04:51:39;3.30;;;2.83;;
2201;SDS011;1107;48.654;9.250;2024-02-15T04:54:06;3.00;;;2.70;;
2201;SDS011;1107;48.654;9.250;2024-02-15T04:56:38;3.10;;;2.70;;
2201;SDS011;1107;48.654;9.250;2024-02-15T04:59:06;2.70;;;2.50;;
2201;SDS011;1107;48.654;9.250;2024-02-15T05:01:34;3.33;;;2.60;;
2201;SDS011;1107;48.654;9.250;2024-02-15T05:04:01;2.73;;;2.37;;
2201;SDS011;1107;48.654;9.250;2024-02-15T05:06:29;2.60;;;2.40;;
2201;SDS011;1107;48.654;9.250;2024-02-15T05:08:57;2.90;;;2.70;;
2201;SDS011;1107;48.654;9.250;2024-02-15T05:11:25;2.40;;;2.20;;
2201;SDS011;1107;48.654;9.250;2024-02-15T05:13:54;6.73;;;2.60;;
2201;SDS011;1107;48.654;9.250;2024-02-15T05:16:22;4.10;;;2.50;;
2201;SDS011;1107;48.654;9.250;2024-02-15T05:18:49;5.47;;;5.03;;
2201;SDS011;1107;48.654;9.250;2024-02-15T05:21:16;7.57;;;6.87;;
2201;SDS011;1107;48.654;9.250;2024-02-15T05:23:43;5.97;;;5.67;;
2201;SDS011;1107;48.654;9.250;2024-02-15T05:26:10;7.47;;;7.07;;
2201;SDS011;1107;48.654;9.250;2024-02-15T05:28:40;6.30;;;5.90;;
2201;SDS011;1107;48.654;9.250;2024-02-15T05:31:09;3.73;;;3.50;;
2201;SDS011;1107;48.654;9.250;2024-02-15T05:33:39;3.63;;;3.30;;
2201;SDS011;1107;48.654;9.250;2024-02-15T05:36:09;3.10;;;2.90;;
2201;SDS011;1107;48.654;9.250;2024-02-15T05:38:36;2.80;;;2.60;;
2201;SDS011;1107;48.654;9.250;2024-02-15T05:41:03;5.00;;;2.53;;
2201;SDS011;1107;48.654;9.250;2024-02-15T05:43:32;2.30;;;2.20;;
2201;SDS011;1107;48.654;9.250;2024-02-15T05:46:01;3.30;;;2.40;;
2201;SDS011;1107;48.654;9.250;2024-02-15T05:48:28;4.00;;;3.00;;
2201;SDS011;1107;48.654;9.250;2024-02-15T05:50:57;4.13;;;3.47;;
2201;SDS011;1107;48.654;9.250;2024-02-15T05:53:24;2.97;;;2.77;;
2201;SDS011;1107;48.654;9.250;2024-02-15T05:55:51;3.00;;;2.80;;
2201;SDS011;1107;48.654;9.250;2024-02-15T05:58:18;4.07;;;2.80;;
2201;SDS011;1107;48.654;9.250;2024-02-15T06:00:46;3.15;;;2.60;;
2201;SDS011;1107;48.654;9.250;2024-02-15T06:03:14;5.43;;;3.33;;
2201;SDS011;1107;48.654;9.250;2024-02-15T06:05:41;3.23;;;3.03;;
2201;SDS011;1107;48.654;9.250;2024-02-15T06:08:10;6.13;;;2.80;;
2201;SDS011;1107;48.654;9.250;2024-02-15T06:10:38;2.90;;;2.70;;
2201;SDS011;1107;48.654;9.250;2024-02-15T06:13:05;3.13;;;2.92;;
2201;SDS011;1107;48.654;9.250;2024-02-15T06:15:33;5.40;;;4.90;;
2201;SDS011;1107;48.654;9.250;2024-02-15T06:18:01;4.00;;;3.80;;
2201;SDS011;1107;48.654;9.250;2024-02-15T06:20:34;4.13;;;3.00;;
2201;SDS011;1107;48.654;9.250;2024-02-15T06:23:01;3.63;;;3.33;;
2201;SDS011;1107;48.654;9.250;2024-02-15T06:25:31;3.47;;;3.17;;
2201;SDS011;1107;48.654;9.250;2024-02-15T06:27:58;4.80;;;2.80;;
2201;SDS011;1107;48.654;9.250;2024-02-15T06:30:27;3.73;;;3.53;;
2201;SDS011;1107;48.654;9.250;2024-02-15T06:33:12;4.13;;;3.93;;
2201;SDS011;1107;48.654;9.250;2024-02-15T06:35:56;3.63;;;3.17;;
2201;SDS011;1107;48.654;9.250;2024-02-15T06:38:41;2.97;;;2.40;;
2201;SDS011;1107;48.654;9.250;2024-02-15T06:41:27;3.83;;;2.57;;
2201;SDS011;1107;48.654;9.250;2024-02-15T06:43:54;2.70;;;2.50;;
2201;SDS011;1107;48.654;9.250;2024-02-15T06:46:22;3.33;;;2.80;;
2201;SDS011;1107;48.654;9.250;2024-02-15T06:48:49;2.90;;;2.70;;
2201;SDS011;1107;48.654;9.250;2024-02-15T06:51:18;3.43;;;3.13;;
2201;SDS011;1107;48.654;9.250;2024-02-15T06:53:44;9.53;;;2.70;;
2201;SDS011;1107;48.654;9.250;2024-02-15T06:56:12;3.73;;;3.43;;
2201;SDS011;1107;48.654;9.250;2024-02-15T06:58:40;4.30;;;4.03;;
2201;SDS011;1107;48.654;9.250;2024-02-15T07:01:07;4.53;;;3.40;;
2201;SDS011;1107;48.654;9.250;2024-02-15T07:03:34;4.27;;;4.07;;
2201;SDS011;1107;48.654;9.250;2024-02-15T07:06:01;6.20;;;5.80;;
2201;SDS011;1107;48.654;9.250;2024-02-15T07:08:29;6.68;;;5.43;;
2201;SDS011;1107;48.654;9.250;2024-02-15T07:10:56;4.40;;;4.10;;
2201;SDS011;1107;48.654;9.250;2024-02-15T07:13:23;4.80;;;4.20;;
2201;SDS011;1107;48.654;9.250;2024-02-15T07:15:53;5.03;;;4.70;;
2201;SDS011;1107;48.654;9.250;2024-02-15T07:18:20;4.93;;;4.73;;
2201;SDS011;1107;48.654;9.250;2024-02-15T07:20:47;5.13;;;4.60;;
2201;SDS011;1107;48.654;9.250;2024-02-15T07:23:14;4.20;;;4.00;;
2201;SDS011;1107;48.654;9.250;2024-02-15T07:25:41;4.80;;;4.60;;
2201;SDS011;1107;48.654;9.250;2024-02-15T07:28:08;5.47;;;4.53;;
2201;SDS011;1107;48.654;9.250;2024-02-15T07:30:35;4.60;;;4.30;;
2201;SDS011;1107;48.654;9.250;2024-02-15T07:33:04;5.27;;;4.87;;
2201;SDS011;1107;48.654;9.250;2024-02-15T07:35:32;6.13;;;5.83;;
2201;SDS011;1107;48.654;9.250;2024-02-15T07:38:00;5.10;;;4.80;;
2201;SDS011;1107;48.654;9.250;2024-02-15T07:40:27;4.37;;;4.17;;
2201;SDS011;1107;48.654;9.250;2024-02-15T07:42:55;4.77;;;4.37;;
2201;SDS011;1107;48.654;9.250;2024-02-15T07:45:23;5.10;;;4.67;;
2201;SDS011;1107;48.654;9.250;2024-02-15T07:47:50;4.87;;;4.37;;
2201;SDS011;1107;48.654;9.250;2024-02-15T07:50:18;5.00;;;4.80;;
2201;SDS011;1107;48.654;9.250;2024-02-15T07:52:48;3.83;;;3.63;;
2201;SDS011;1107;48.654;9.250;2024-02-15T07:55:17;3.47;;;3.27;;
2201;SDS011;1107;48.654;9.250;2024-02-15T07:57:44;3.97;;;3.77;;
2201;SDS011;1107;48.654;9.250;2024-02-15T08:00:13;4.30;;;3.00;;
2201;SDS011;1107;48.654;9.250;2024-02-15T08:02:41;4.70;;;4.30;;
2201;SDS011;1107;48.654;9.250;2024-02-15T08:05:09;4.67;;;4.37;;
2201;SDS011;1107;48.654;9.250;2024-02-15T08:07:40;4.07;;;3.80;;
2201;SDS011;1107;48.654;9.250;2024-02-15T08:10:09;3.60;;;3.30;;
2201;SDS011;1107;48.654;9.250;2024-02-15T08:12:38;3.77;;;3.57;;
2201;SDS011;1107;48.654;9.250;2024-02-15T08:15:06;4.13;;;3.93;;
2201;SDS011;1107;48.654;9.250;2024-02-15T08:17:37;4.07;;;3.87;;
2201;SDS011;1107;48.654;9.250;2024-02-15T08:20:07;4.10;;;3.90;;
2201;SDS011;1107;48.654;9.250;2024-02-15T08:22:36;4.30;;;4.10;;
2201;SDS011;1107;48.654;9.250;2024-02-15T08:25:06;4.20;;;4.00;;
2201;SDS011;1107;48.654;9.250;2024-02-15T08:27:35;3.97;;;3.77;;
2201;SDS011;1107;48.654;9.250;2024-02-15T08:30:06;3.63;;;3.37;;
2201;SDS011;1107;48.654;9.250;2024-02-15T08:32:35;4.13;;;3.90;;
2201;SDS011;1107;48.654;9.250;2024-02-15T08:35:03;5.80;;;3.87;;
2201;SDS011;1107;48.654;9.250;2024-02-15T08:37:31;4.10;;;3.90;;
2201;SDS011;1107;48.654;9.250;2024-02-15T08:40:00;4.03;;;3.80;;
2201;SDS011;1107;48.654;9.250;2024-02-15T08:42:28;3.80;;;3.60;;
2201;SDS011;1107;48.654;9.250;2024-02-15T08:44:55;4.27;;;3.97;;
2201;SDS011;1107;48.654;9.250;2024-02-15T08:47:24;5.50;;;3.70;;
2201;SDS011;1107;48.654;9.250;2024-02-15T08:49:52;3.50;;;3.30;;
2201;SDS011;1107;48.654;9.250;2024-02-15T08:52:19;4.80;;;4.50;;
2201;SDS011;1107;48.654;9.250;2024-02-15T08:54:46;3.53;;;3.33;;
2201;SDS011;1107;48.654;9.250;2024-02-15T08:57:14;4.07;;;3.17;;
2201;SDS011;1107;48.654;9.250;2024-02-15T08:59:41;3.90;;;3.70;;
2201;SDS011;1107;48.654;9.250;2024-02-15T09:02:08;4.07;;;3.80;;
2201;SDS011;1107;48.654;9.250;2024-02-15T09:04:35;7.30;;;4.23;;
2201;SDS011;1107;48.654;9.250;2024-02-15T09:07:02;4.60;;;4.00;;
2201;SDS011;1107;48.654;9.250;2024-02-15T09:09:29;7.23;;;3.30;;
2201;SDS011;1107;48.654;9.250;2024-02-15T09:12:00;4.10;;;3.70;;
2201;SDS011;1107;48.654;9.250;2024-02-15T09:14:32;5.90;;;3.40;;
2201;SDS011;1107;48.654;9.250;2024-02-15T09:16:59;3.60;;;3.40;;
2201;SDS011;1107;48.654;9.250;2024-02-15T09:19:26;3.43;;;3.23;;
2201;SDS011;1107;48.654;9.250;2024-02-15T09:21:53;3.57;;;3.27;;
2201;SDS011;1107;48.654;9.250;2024-02-15T09:24:22;3.80;;;3.50;;
2201;SDS011;1107;48.654;9.250;2024-02-15T09:26:50;3.40;;;3.20;;
2201;SDS011;1107;48.654;9.250;2024-02-15T09:29:17;3.83;;;3.53;;
2201;SDS011;1107;48.654;9.250;2024-02-15T09:31:47;2.90;;;2.70;;
2201;SDS011;1107;48.654;9.250;2024-02-15T09:34:14;2.93;;;2.73;;
2201;SDS011;1107;48.654;9.250;2024-02-15T09:36:41;3.90;;;3.00;;
2201;SDS011;1107;48.654;9.250;2024-02-15T09:39:08;3.43;;;3.20;;
2201;SDS011;1107;48.654;9.250;2024-02-15T09:41:38;2.87;;;2.67;;
2201;SDS011;1107;48.654;9.250;2024-02-15T09:44:08;2.50;;;2.30;;
2201;SDS011;1107;48.654;9.250;2024-02-15T09:46:35;3.50;;;3.30;;
2201;SDS011;1107;48.654;9.250;2024-02-15T09:49:08;3.30;;;3.00;;
2201;SDS011;1107;48.654;9.250;2024-02-15T09:51:35;2.83;;;2.63;;
2201;SDS011;1107;48.654;9.250;2024-02-15T09:54:03;3.20;;;3.00;;
2201;SDS011;1107;48.654;9.250;2024-02-15T09:56:34;3.03;;;2.83;;
2201;SDS011;1107;48.654;9.250;2024-02-15T09:59:02;2.80;;;2.60;;
2201;SDS011;1107;48.654;9.250;2024-02-15T10:01:31;4.13;;;2.70;;
2201;SDS011;1107;48.654;9.250;2024-02-15T10:03:58;2.60;;;2.40;;
2201;SDS011;1107;48.654;9.250;2024-02-15T10:06:29;3.00;;;2.80;;
2201;SDS011;1107;48.654;9.250;2024-02-15T10:09:08;4.43;;;2.80;;
2201;SDS011;1107;48.654;9.250;2024-02-15T10:11:53;2.70;;;2.50;;
2201;SDS011;1107;48.654;9.250;2024-02-15T10:14:21;3.13;;;2.83;;
2201;SDS011;1107;48.654;9.250;2024-02-15T10:16:48;2.87;;;2.67;;
2201;SDS011;1107;48.654;9.250;2024-02-15T10:19:15;2.93;;;2.73;;
2201;SDS011;1107;48.654;9.250;2024-02-15T10:21:44;2.80;;;2.60;;
2201;SDS011;1107;48.654;9.250;2024-02-15T10:24:11;3.77;;;2.50;;
2201;SDS011;1107;48.654;9.250;2024-02-15T10:26:39;4.20;;;2.50;;
2201;SDS011;1107;48.654;9.250;2024-02-15T10:29:06;3.07;;;2.87;;
2201;SDS011;1107;48.654;9.250;2024-02-15T10:31:35;2.70;;;2.50;;
2201;SDS011;1107;48.654;9.250;2024-02-15T10:34:03;2.70;;;2.50;;
2201;SDS011;1107;48.654;9.250;2024-02-15T10:36:32;3.17;;;2.30;;
2201;SDS011;1107;48.654;9.250;2024-02-15T10:39:17;2.80;;;2.60;;
2201;SDS011;1107;48.654;9.250;2024-02-15T10:41:45;5.93;;;2.40;;
2201;SDS011;1107;48.654;9.250;2024-02-15T10:44:17;2.40;;;2.30;;
2201;SDS011;1107;48.654;9.250;2024-02-15T10:46:45;2.27;;;2.17;;
2201;SDS011;1107;48.654;9.250;2024-02-15T10:49:20;1.77;;;1.67;;
2201;SDS011;1107;48.654;9.250;2024-02-15T10:51:50;1.63;;;1.53;;
2201;SDS011;1107;48.654;9.250;2024-02-15T10:54:33;1.80;;;1.57;;
2201;SDS011;1107;48.654;9.250;2024-02-15T10:57:08;1.50;;;1.23;;
2201;SDS011;1107;48.654;9.250;2024-02-15T10:59:38;1.60;;;1.30;;
2201;SDS011;1107;48.654;9.250;2024-02-15T11:02:20;3.33;;;1.43;;
2201;SDS011;1107;48.654;9.250;2024-02-15T11:04:54;1.60;;;1.50;;
2201;SDS011;1107;48.654;9.250;2024-02-15T11:07:27;1.90;;;1.80;;
2201;SDS011;1107;48.654;9.250;2024-02-15T11:09:56;1.70;;;1.60;;
2201;SDS011;1107;48.654;9.250;2024-02-15T11:12:24;2.10;;;1.90;;
2201;SDS011;1107;48.654;9.250;2024-02-15T11:14:52;1.97;;;1.87;;
2201;SDS011;1107;48.654;9.250;2024-02-15T11:23:23;1.93;;;1.83;;
2201;SDS011;1107;48.654;9.250;2024-02-15T11:25:55;2.43;;;1.67;;
2201;SDS011;1107;48.654;9.250;2024-02-15T11:28:39;2.77;;;1.67;;
2201;SDS011;1107;48.654;9.250;2024-02-15T11:37:09;2.00;;;1.90;;
2201;SDS011;1107;48.654;9.250;2024-02-15T11:39:39;1.93;;;1.77;;
2201;SDS011;1107;48.654;9.250;2024-02-15T11:45:03;2.80;;;1.57;;
2201;SDS011;1107;48.654;9.250;2024-02-15T11:47:31;1.80;;;1.60;;
2201;SDS011;1107;48.654;9.250;2024-02-15T11:50:03;2.27;;;2.00;;
2201;SDS011;1107;48.654;9.250;2024-02-15T11:52:31;2.93;;;1.77;;
2201;SDS011;1107;48.654;9.250;2024-02-15T11:55:04;1.70;;;1.60;;
2201;SDS011;1107;48.654;9.250;2024-02-15T11:57:36;1.60;;;1.50;;
2201;SDS011;1107;48.654;9.250;2024-02-15T12:00:22;3.43;;;1.77;;
2201;SDS011;1107;48.654;9.250;2024-02-15T12:03:06;1.97;;;1.77;;
2201;SDS011;1107;48.654;9.250;2024-02-15T12:05:51;1.60;;;1.47;;
2201;SDS011;1107;48.654;9.250;2024-02-15T12:08:35;2.10;;;1.60;;
2201;SDS011;1107;48.654;9.250;2024-02-15T12:11:19;1.70;;;1.50;;
2201;SDS011;1107;48.654;9.250;2024-02-15T12:14:05;1.73;;;1.60;;
2201;SDS011;1107;48.654;9.250;2024-02-15T12:16:59;1.93;;;1.73;;
2201;SDS011;1107;48.654;9.250;2024-02-15T12:19:48;1.60;;;1.40;;
2201;SDS011;1107;48.654;9.250;2024-02-15T12:22:17;2.03;;;1.83;;
2201;SDS011;1107;48.654;9.250;2024-02-15T12:24:56;1.70;;;1.60;;
2201;SDS011;1107;48.654;9.250;2024-02-15T12:27:25;2.93;;;1.33;;
2201;SDS011;1107;48.654;9.250;2024-02-15T12:29:55;1.60;;;1.50;;
2201;SDS011;1107;48.654;9.250;2024-02-15T12:32:23;2.03;;;1.77;;
2201;SDS011;1107;48.654;9.250;2024-02-15T12:34:50;2.53;;;1.50;;
2201;SDS011;1107;48.654;9.250;2024-02-15T12:37:18;4.33;;;1.47;;
2201;SDS011;1107;48.654;9.250;2024-02-15T12:39:47;1.50;;;1.40;;
2201;SDS011;1107;48.654;9.250;2024-02-15T12:42:15;1.90;;;1.47;;
2201;SDS011;1107;48.654;9.250;2024-02-15T12:44:43;1.90;;;1.70;;
2201;SDS011;1107;48.654;9.250;2024-02-15T12:47:20;2.17;;;1.77;;
2201;SDS011;1107;48.654;9.250;2024-02-15T12:49:48;2.00;;;1.70;;
2201;SDS011;1107;48.654;9.250;2024-02-15T12:52:33;2.17;;;1.97;;
2201;SDS011;1107;48.654;9.250;2024-02-15T12:55:10;2.20;;;1.70;;
2201;SDS011;1107;48.654;9.250;2024-02-15T12:57:42;1.60;;;1.40;;
2201;SDS011;1107;48.654;9.250;2024-02-15T13:00:13;2.23;;;1.83;;
2201;SDS011;1107;48.654;9.250;2024-02-15T13:02:45;1.67;;;1.20;;
2201;SDS011;1107;48.654;9.250;2024-02-15T13:05:14;1.60;;;1.50;;
2201;SDS011;1107;48.654;9.250;2024-02-15T13:07:43;1.70;;;1.30;;
2201;SDS011;1107;48.654;9.250;2024-02-15T13:10:10;3.30;;;1.90;;
2201;SDS011;1107;48.654;9.250;2024-02-15T13:12:40;2.47;;;1.50;;
2201;SDS011;1107;48.654;9.250;2024-02-15T13:15:09;1.60;;;1.50;;
2201;SDS011;1107;48.654;9.250;2024-02-15T13:17:39;2.00;;;1.57;;
2201;SDS011;1107;48.654;9.250;2024-02-15T13:20:10;1.90;;;1.53;;
2201;SDS011;1107;48.654;9.250;2024-02-15T13:22:39;2.03;;;1.70;;
2201;SDS011;1107;48.654;9.250;2024-02-15T13:25:06;1.97;;;1.60;;
2201;SDS011;1107;48.654;9.250;2024-02-15T13:27:34;1.70;;;1.50;;
2201;SDS011;1107;48.654;9.250;2024-02-15T13:30:03;2.43;;;1.50;;
2201;SDS011;1107;48.654;9.250;2024-02-15T13:32:33;1.80;;;1.70;;
2201;SDS011;1107;48.654;9.250;2024-02-15T13:35:01;2.00;;;1.70;;
2201;SDS011;1107;48.654;9.250;2024-02-15T13:37:39;2.63;;;1.70;;
2201;SDS011;1107;48.654;9.250;2024-02-15T13:40:08;2.07;;;1.50;;
2201;SDS011;1107;48.654;9.250;2024-02-15T13:42:40;2.37;;;1.80;;
2201;SDS011;1107;48.654;9.250;2024-02-15T13:45:12;1.93;;;1.73;;
2201;SDS011;1107;48.654;9.250;2024-02-15T13:47:39;2.40;;;2.20;;
2201;SDS011;1107;48.654;9.250;2024-02-15T13:50:07;9.30;;;1.93;;
2201;SDS011;1107;48.654;9.250;2024-02-15T13:52:35;2.60;;;2.10;;
2201;SDS011;1107;48.654;9.250;2024-02-15T13:55:03;2.07;;;1.87;;
2201;SDS011;1107;48.654;9.250;2024-02-15T13:57:31;2.20;;;2.00;;
2201;SDS011;1107;48.654;9.250;2024-02-15T13:59:58;2.00;;;1.90;;
2201;SDS011;1107;48.654;9.250;2024-02-15T14:02:25;2.40;;;1.97;;
2201;SDS011;1107;48.654;9.250;2024-02-15T14:04:53;2.57;;;2.37;;
2201;SDS011;1107;48.654;9.250;2024-02-15T14:07:20;2.43;;;1.67;;
2201;SDS011;1107;48.654;9.250;2024-02-15T14:09:47;2.37;;;2.17;;
2201;SDS011;1107;48.654;9.250;2024-02-15T14:12:15;3.43;;;1.90;;
2201;SDS011;1107;48.654;9.250;2024-02-15T14:14:42;2.53;;;2.33;;
2201;SDS011;1107;48.654;9.250;2024-02-15T14:17:09;2.37;;;2.17;;
2201;SDS011;1107;48.654;9.250;2024-02-15T14:19:36;2.13;;;1.93;;
2201;SDS011;1107;48.654;9.250;2024-02-15T14:22:03;2.60;;;2.40;;
2201;SDS011;1107;48.654;9.250;2024-02-15T14:24:34;2.00;;;1.80;;
2201;SDS011;1107;48.654;9.250;2024-02-15T14:27:03;5.43;;;2.10;;
2201;SDS011;1107;48.654;9.250;2024-02-15T14:29:32;2.30;;;2.10;;
2201;SDS011;1107;48.654;9.250;2024-02-15T14:32:02;2.20;;;2.00;;
2201;SDS011;1107;48.654;9.250;2024-02-15T14:34:47;2.60;;;2.40;;
2201;SDS011;1107;48.654;9.250;2024-02-15T14:37:15;2.10;;;1.90;;
2201;SDS011;1107;48.654;9.250;2024-02-15T14:39:44;7.30;;;2.00;;
2201;SDS011;1107;48.654;9.250;2024-02-15T14:42:11;2.30;;;2.00;;
2201;SDS011;1107;48.654;9.250;2024-02-15T14:44:40;7.80;;;2.27;;
2201;SDS011;1107;48.654;9.250;2024-02-15T14:47:08;2.63;;;2.43;;
2201;SDS011;1107;48.654;9.250;2024-02-15T14:49:35;2.63;;;2.40;;
2201;SDS011;1107;48.654;9.250;2024-02-15T14:52:02;2.10;;;1.90;;
2201;SDS011;1107;48.654;9.250;2024-02-15T14:54:29;1.80;;;1.70;;
2201;SDS011;1107;48.654;9.250;2024-02-15T14:56:58;3.17;;;1.70;;
2201;SDS011;1107;48.654;9.250;2024-02-15T14:59:25;1.90;;;1.50;;
2201;SDS011;1107;48.654;9.250;2024-02-15T15:01:54;1.77;;;1.50;;
2201;SDS011;1107;48.654;9.250;2024-02-15T15:04:22;1.63;;;1.33;;
2201;SDS011;1107;48.654;9.250;2024-02-15T15:06:51;1.80;;;1.50;;
2201;SDS011;1107;48.654;9.250;2024-02-15T15:09:35;1.40;;;1.00;;
2201;SDS011;1107;48.654;9.250;2024-02-15T15:12:20;2.00;;;1.33;;
2201;SDS011;1107;48.654;9.250;2024-02-15T15:15:04;1.93;;;1.47;;
2201;SDS011;1107;48.654;9.250;2024-02-15T15:17:34;2.17;;;1.57;;
2201;SDS011;1107;48.654;9.250;2024-02-15T15:20:01;5.40;;;1.10;;
2201;SDS011;1107;48.654;9.250;2024-02-15T15:22:33;1.97;;;1.60;;
2201;SDS011;1107;48.654;9.250;2024-02-15T15:25:00;23.77;;;2.33;;
2201;SDS011;1107;48.654;9.250;2024-02-15T15:27:28;1.60;;;1.40;;
2201;SDS011;1107;48.654;9.250;2024-02-15T15:29:56;1.67;;;1.33;;
2201;SDS011;1107;48.654;9.250;2024-02-15T15:32:23;4.60;;;2.10;;
2201;SDS011;1107;48.654;9.250;2024-02-15T15:34:52;2.97;;;1.50;;
2201;SDS011;1107;48.654;9.250;2024-02-15T15:37:19;3.20;;;2.20;;
2201;SDS011;1107;48.654;9.250;2024-02-15T15:39:48;1.87;;;1.57;;
2201;SDS011;1107;48.654;9.250;2024-02-15T15:42:15;2.00;;;1.53;;